Time;durP1;ratioP1;P1;durP2;ratioP2;P2;SDS_P1;SDS_P2;PMS_P1;PMS_P2;Temp;Humidity;BMP_temperature;BMP_pressure;BME280_temperature;BME280_humidity;BME280_pressure;Samples;Min_cycle;Max_cycle;Signal;HPM_P1;HPM_P2
2021/03/25 00:00:13;;;;;;;11.48;1.95;;;;;;;9.62;63.17;100778.94;4441646;32;20045;-82
2021/03/25 00:02:39;;;;;;;12.35;1.58;;;;;;;9.54;63.67;100781.09;4431535;26;20123;-74
2021/03/25 00:05:07;;;;;;;7.87;1.70;;;;;;;9.47;64.06;100786.84;4422675;32;20126;-74
2021/03/25 00:07:33;;;;;;;15.05;2.53;;;;;;;9.50;64.01;100779.56;4422144;32;20030;-74
2021/03/25 00:09:59;;;;;;;8.85;1.92;;;;;;;9.25;65.25;100779.25;4416330;32;20046;-74
2021/03/25 00:12:25;;;;;;;10.18;2.10;;;;;;;9.32;65.33;100779.91;4417714;32;20072;-75
2021/03/25 00:14:51;;;;;;;10.77;1.80;;;;;;;9.46;64.81;100771.22;4419790;32;20081;-74
2021/03/25 00:17:17;;;;;;;11.82;1.70;;;;;;;9.20;66.07;100779.72;4420323;32;20109;-73
2021/03/25 00:19:43;;;;;;;14.07;2.28;;;;;;;9.12;66.34;100772.66;4420179;32;20061;-74
2021/03/25 00:22:11;;;;;;;12.32;2.00;;;;;;;9.11;66.34;100773.91;4416892;32;20101;-74
2021/03/25 00:24:37;;;;;;;16.30;2.05;;;;;;;9.04;66.68;100766.37;4418845;32;20034;-74
2021/03/25 00:27:05;;;;;;;10.23;2.03;;;;;;;8.99;67.15;100772.47;4419817;32;20429;-74
2021/03/25 00:29:31;;;;;;;11.07;2.47;;;;;;;8.96;67.20;100773.31;4420366;32;20050;-74
2021/03/25 00:31:57;;;;;;;14.15;2.12;;;;;;;8.89;67.34;100762.22;4419999;32;20379;-73
2021/03/25 00:34:23;;;;;;;11.00;1.62;;;;;;;8.90;67.36;100765.81;4411147;32;20052;-74
2021/03/25 00:36:48;;;;;;;15.98;1.55;;;;;;;8.82;67.63;100755.94;4408697;32;20050;-74
2021/03/25 00:39:14;;;;;;;10.60;1.35;;;;;;;8.81;67.66;100762.78;4406239;32;20437;-73
2021/03/25 00:41:41;;;;;;;8.07;1.40;;;;;;;8.77;67.57;100748.03;4409849;32;20470;-74
2021/03/25 00:44:10;;;;;;;12.75;1.85;;;;;;;8.80;67.63;100747.16;4409476;32;20033;-74
2021/03/25 00:46:36;;;;;;;7.97;2.05;;;;;;;8.80;67.78;100750.75;4410525;32;20099;-74
2021/03/25 00:49:03;;;;;;;11.40;2.40;;;;;;;8.74;67.69;100741.22;4407272;32;20035;-73
2021/03/25 00:51:29;;;;;;;10.52;2.28;;;;;;;8.78;67.62;100736.38;4411143;32;20069;-74
2021/03/25 00:53:55;;;;;;;11.15;1.62;;;;;;;8.74;67.73;100738.41;4411600;32;20042;-73
2021/03/25 00:56:20;;;;;;;7.35;1.62;;;;;;;8.69;67.69;100732.50;4408136;32;20435;-73
2021/03/25 00:58:46;;;;;;;15.50;2.40;;;;;;;8.68;67.90;100744.97;4408236;32;20057;-75
2021/03/25 01:01:12;;;;;;;9.23;1.65;;;;;;;8.75;67.66;100745.63;4406790;32;20172;-75
2021/03/25 01:03:37;;;;;;;12.82;1.60;;;;;;;8.78;67.47;100735.56;4396972;32;20089;-74
2021/03/25 01:06:03;;;;;;;10.38;2.00;;;;;;;8.86;67.35;100749.03;4396088;32;20504;-75
2021/03/25 01:08:30;;;;;;;14.05;1.95;;;;;;;8.91;66.95;100747.75;4398689;32;20087;-75
2021/03/25 01:11:22;;;;;;;12.32;2.15;;;;;;;8.85;66.92;100744.66;4396264;32;20498;-75
2021/03/25 01:13:51;;;;;;;11.75;1.80;;;;;;;8.72;67.72;100737.28;4399850;32;20113;-73
2021/03/25 01:18:59;;;;;;;10.35;1.77;;;;;;;9.25;66.62;100753.97;3985947;32;15023927;-75
2021/03/25 01:21:27;;;;;;;9.15;1.65;;;;;;;9.25;66.62;100753.97;4441517;32;20051;-74
2021/03/25 01:23:54;;;;;;;17.00;1.73;;;;;;;8.65;68.12;100748.63;4439353;32;21169;-74
2021/03/25 01:26:20;;;;;;;9.27;1.30;;;;;;;8.52;68.96;100750.41;4442882;32;20125;-74
2021/03/25 01:28:46;;;;;;;7.37;1.55;;;;;;;8.42;69.19;100740.94;4441733;32;20026;-74
2021/03/25 01:31:12;;;;;;;8.95;1.48;;;;;;;8.54;68.80;100743.16;4443567;32;20064;-75
2021/03/25 01:33:38;;;;;;;8.10;1.67;;;;;;;8.45;69.18;100734.50;4441151;32;20064;-74
2021/03/25 01:36:04;;;;;;;10.40;1.85;;;;;;;8.39;69.52;100736.19;4436547;32;20098;-74
2021/03/25 01:38:30;;;;;;;11.48;1.42;;;;;;;8.36;69.81;100725.03;4438746;32;20069;-75
2021/03/25 01:40:59;;;;;;;16.90;1.83;;;;;;;8.26;70.36;100725.97;4441151;32;20044;-74
2021/03/25 01:43:30;;;;;;;13.52;2.15;;;;;;;8.39;69.88;100718.56;4442368;32;20419;-74
2021/03/25 01:48:37;;;;;;;13.10;1.80;;;;;;;8.83;69.08;100713.41;3984848;32;15023884;-74
2021/03/25 01:51:08;;;;;;;10.65;1.40;;;;;;;8.83;69.08;100713.41;4440891;32;20478;-74
2021/03/25 01:54:01;;;;;;;10.98;1.75;;;;;;;8.54;69.37;100694.69;4440462;32;20034;-75
2021/03/25 02:10:05;;;;;;;14.60;1.83;;;;;;;8.54;70.92;100701.09;3988024;32;15022695;-75
2021/03/25 02:12:43;;;;;;;11.57;2.53;;;;;;;8.54;70.92;100701.09;4442196;32;20064;-74
2021/03/25 02:17:58;;;;;;;13.57;1.95;;;;;;;8.37;72.18;100695.78;3985568;32;15025079;-75
2021/03/25 02:28:41;;;;;;;16.02;3.33;;;;;;;8.46;72.46;100698.81;3982126;32;15024194;-74
2021/03/25 02:31:18;;;;;;;12.60;2.45;;;;;;;8.46;72.46;100698.81;4441775;32;20040;-74
2021/03/25 02:33:49;;;;;;;9.73;2.05;;;;;;;8.10;73.09;100684.53;4442080;32;20017;-73
2021/03/25 02:36:20;;;;;;;12.18;2.30;;;;;;;8.00;73.76;100680.69;4442158;32;20109;-73
2021/03/25 02:38:56;;;;;;;13.52;1.85;;;;;;;7.96;73.96;100676.34;4441669;32;20065;-74
2021/03/25 02:41:32;;;;;;;11.65;2.33;;;;;;;8.06;73.77;100672.59;4440597;32;20057;-74
2021/03/25 02:44:06;;;;;;;12.68;1.90;;;;;;;8.09;73.72;100671.75;4441999;32;20371;-74
2021/03/25 02:49:15;;;;;;;7.15;1.73;;;;;;;8.81;71.66;100687.00;3986552;32;15023096;-75
2021/03/25 02:51:48;;;;;;;14.32;2.53;;;;;;;8.81;71.66;100687.00;4441245;32;20502;-73
2021/03/25 02:54:14;;;;;;;10.65;2.10;;;;;;;8.44;72.01;100674.00;4438113;32;20041;-73
2021/03/25 02:59:30;;;;;;;13.13;2.10;;;;;;;9.09;70.51;100672.47;4000689;31;15015880;-74
2021/03/25 03:02:01;;;;;;;13.55;2.03;;;;;;;9.09;70.51;100672.47;4460916;32;20083;-74
2021/03/25 03:04:33;;;;;;;16.37;2.03;;;;;;;8.69;71.26;100679.22;4464901;32;20139;-75
2021/03/25 03:09:43;;;;;;;9.27;1.80;;;;;;;9.14;70.53;100674.78;3986146;32;15022797;-73
2021/03/25 03:12:18;;;;;;;9.60;1.98;;;;;;;9.14;70.53;100674.78;4439881;32;20059;-74
2021/03/25 03:14:50;;;;;;;16.50;2.60;;;;;;;8.63;71.86;100675.31;4441171;32;20093;-75
2021/03/25 03:17:22;;;;;;;11.20;1.60;;;;;;;8.70;71.71;100663.94;4439537;32;20073;-73
2021/03/25 03:20:06;;;;;;;11.15;1.90;;;;;;;8.76;71.59;100660.25;4440546;32;20513;-75
2021/03/25 03:22:35;;;;;;;14.15;2.47;;;;;;;8.76;71.47;100663.03;4440954;32;20029;-74
2021/03/25 03:25:07;;;;;;;13.05;2.10;;;;;;;8.73;72.08;100658.28;4441326;32;20584;-73
2021/03/25 03:27:40;;;;;;;7.87;2.05;;;;;;;8.77;72.25;100653.41;4438686;32;20442;-74
2021/03/25 03:30:14;;;;;;;18.67;2.97;;;;;;;8.77;72.22;100652.62;4438695;32;20068;-74
2021/03/25 03:32:53;;;;;;;9.65;1.70;;;;;;;8.82;71.96;100657.72;4437147;32;20394;-74
2021/03/25 03:35:28;;;;;;;11.70;2.25;;;;;;;8.60;72.72;100653.72;4440033;32;20473;-75
2021/03/25 03:37:59;;;;;;;14.75;2.20;;;;;;;8.76;72.33;100651.81;4440324;32;20014;-74
2021/03/25 03:40:29;;;;;;;11.93;1.58;;;;;;;8.66;72.99;100655.62;4442084;32;20076;-74
2021/03/25 03:42:59;;;;;;;11.35;2.00;;;;;;;8.67;73.05;100633.94;4438412;32;20029;-74
2021/03/25 03:45:28;;;;;;;19.73;2.05;;;;;;;8.72;73.01;100633.47;4437171;32;20515;-74
2021/03/25 03:48:04;;;;;;;12.43;1.50;;;;;;;8.76;72.75;100634.97;4440688;32;20104;-73
2021/03/25 03:50:35;;;;;;;9.50;2.10;;;;;;;8.83;72.67;100637.66;4441190;32;20064;-73
2021/03/25 03:53:01;;;;;;;11.35;1.70;;;;;;;8.75;73.10;100644.63;4440982;32;20163;-74
2021/03/25 03:55:29;;;;;;;13.02;1.45;;;;;;;8.84;72.87;100638.47;4441863;32;20065;-73
2021/03/25 03:58:08;;;;;;;8.13;1.85;;;;;;;8.88;72.80;100634.38;4438098;32;20089;-74
2021/03/25 04:05:55;;;;;;;10.32;1.48;;;;;;;9.45;71.23;100646.03;3984469;32;15022796;-74
2021/03/25 04:08:45;;;;;;;11.02;1.55;;;;;;;9.45;71.23;100646.03;4431890;32;20188;-75
2021/03/25 04:11:18;;;;;;;10.85;1.83;;;;;;;8.88;72.39;100628.75;4435405;32;20449;-74
2021/03/25 04:13:51;;;;;;;7.75;1.60;;;;;;;8.95;72.39;100619.38;4435954;32;20091;-74
2021/03/25 04:16:23;;;;;;;9.40;1.60;;;;;;;8.91;72.91;100622.28;4434639;32;20053;-74
2021/03/25 04:18:57;;;;;;;6.62;1.52;;;;;;;8.93;72.72;100631.03;4435796;32;20018;-75
2021/03/25 04:21:31;;;;;;;9.23;1.40;;;;;;;9.16;72.20;100633.00;4434286;32;20064;-74
2021/03/25 04:23:59;;;;;;;8.43;1.50;;;;;;;9.02;72.52;100634.06;4435924;32;20362;-74
2021/03/25 04:26:49;;;;;;;9.13;1.25;;;;;;;8.95;72.81;100639.03;4437692;32;20542;-74
2021/03/25 04:29:24;;;;;;;9.38;1.80;;;;;;;8.99;72.75;100642.59;4440206;32;20404;-74
2021/03/25 04:31:50;;;;;;;11.52;1.67;;;;;;;8.96;72.38;100640.63;4432343;32;20433;-74
2021/03/25 04:34:16;;;;;;;5.22;1.58;;;;;;;8.99;72.55;100640.56;4435934;32;20099;-74
2021/03/25 04:36:45;;;;;;;9.25;1.73;;;;;;;8.94;72.76;100635.44;4431654;32;20046;-74
2021/03/25 04:39:15;;;;;;;11.55;1.27;;;;;;;8.97;72.60;100626.16;4433836;32;20022;-74
2021/03/25 04:41:43;;;;;;;17.15;2.00;;;;;;;8.90;72.68;100631.13;4434568;32;20378;-74
2021/03/25 04:44:29;;;;;;;7.85;1.40;;;;;;;8.95;72.52;100625.81;4434739;32;20026;-74
2021/03/25 04:49:42;;;;;;;12.77;1.77;;;;;;;9.45;71.38;100642.44;3986947;32;15024341;-74
2021/03/25 04:52:17;;;;;;;11.50;2.28;;;;;;;9.45;71.38;100642.44;4443063;32;20033;-74
2021/03/25 04:54:43;;;;;;;8.48;2.05;;;;;;;9.07;72.06;100625.16;4442119;32;20033;-74
2021/03/25 04:57:25;;;;;;;9.40;1.50;;;;;;;8.95;72.29;100628.59;4442835;32;20080;-75
2021/03/25 04:59:54;;;;;;;13.15;1.75;;;;;;;9.07;71.84;100622.34;4443194;32;20034;-75
2021/03/25 05:02:21;;;;;;;8.43;1.50;;;;;;;9.02;72.29;100613.66;4431239;32;20085;-74
2021/03/25 05:04:51;;;;;;;9.32;1.65;;;;;;;9.00;72.17;100614.09;4425267;32;20096;-75
2021/03/25 05:07:21;;;;;;;10.75;1.40;;;;;;;9.07;72.02;100622.34;4423909;32;20034;-75
2021/03/25 05:09:47;;;;;;;8.23;1.45;;;;;;;9.00;72.19;100614.09;4426166;32;20102;-74
2021/03/25 05:12:16;;;;;;;17.35;1.98;;;;;;;8.98;72.36;100613.72;4425173;32;20025;-74
2021/03/25 05:14:44;;;;;;;17.15;2.72;;;;;;;9.03;72.20;100616.03;4424824;32;20077;-74
2021/03/25 05:20:08;;;;;;;13.10;1.83;;;;;;;9.39;71.92;100611.25;3985697;32;15024606;-74
2021/03/25 05:27:59;;;;;;;9.43;1.42;;;;;;;9.35;72.00;100610.53;3985375;32;15023698;-74
2021/03/25 05:30:33;;;;;;;9.25;1.27;;;;;;;9.35;72.00;100610.53;4434407;32;20430;-74
2021/03/25 05:33:03;;;;;;;16.50;1.60;;;;;;;8.89;73.34;100607.88;4433937;32;20041;-74
2021/03/25 05:35:34;;;;;;;14.05;1.33;;;;;;;8.93;73.28;100602.22;4438265;32;20056;-75
2021/03/25 05:38:01;;;;;;;15.50;2.45;;;;;;;8.89;73.34;100604.25;4436475;32;20342;-74
2021/03/25 05:40:35;;;;;;;12.25;1.60;;;;;;;9.12;72.69;100612.66;4435723;32;20297;-74
2021/03/25 06:02:53;;;;;;;7.85;1.67;;;;;;;9.42;73.67;100601.19;3978702;32;15022452;-74
2021/03/25 06:05:19;;;;;;;15.77;2.62;;;;;;;9.42;73.67;100601.19;4426594;32;20055;-74
2021/03/25 06:16:48;;;;;;;12.93;2.33;;;;;;;9.01;74.80;100607.25;3985467;32;15023162;-74
2021/03/25 06:22:17;;;;;;;16.67;2.05;;;;;;;9.29;74.52;100605.84;3958063;32;15723669;-74
2021/03/25 06:25:16;;;;;;;9.38;2.50;;;;;;;9.29;74.52;100605.84;4433318;32;21454;-74
2021/03/25 06:30:22;;;;;;;12.60;2.17;;;;;;;9.26;74.64;100618.75;3957617;32;15724599;-74
2021/03/25 06:33:19;;;;;;;15.75;2.58;;;;;;;9.26;74.64;100618.75;4435428;32;20037;-76
2021/03/25 06:35:50;;;;;;;8.50;2.03;;;;;;;8.97;75.36;100620.56;4435087;32;20052;-74
2021/03/25 06:43:43;;;;;;;9.30;2.33;;;;;;;9.45;74.31;100615.12;3987323;32;15022511;-75
2021/03/25 06:46:37;;;;;;;9.60;2.15;;;;;;;9.28;74.28;100610.69;4437668;32;20095;-74
2021/03/25 06:49:16;;;;;;;6.50;1.87;;;;;;;9.39;73.66;100625.28;4437069;32;20419;-75
2021/03/25 06:51:42;;;;;;;19.17;3.15;;;;;;;9.47;73.56;100623.94;4442543;32;20080;-74
2021/03/25 06:56:47;;;;;;;12.98;2.60;;;;;;;9.91;72.90;100623.31;3957054;32;15726551;-75
2021/03/25 06:59:21;;;;;;;9.55;2.28;;;;;;;9.91;72.90;100623.31;4435552;32;20080;-74
2021/03/25 07:01:50;;;;;;;16.15;2.40;;;;;;;9.40;73.97;100612.84;4426848;32;20081;-75
2021/03/25 07:07:02;;;;;;;15.63;2.37;;;;;;;9.84;73.32;100623.50;3999705;31;15018521;-73
2021/03/25 07:09:32;;;;;;;11.18;3.05;;;;;;;9.84;73.32;100623.50;4457561;32;20263;-73
2021/03/25 07:12:03;;;;;;;10.55;2.78;;;;;;;9.47;73.91;100621.13;4456971;32;20465;-75
2021/03/25 07:14:37;;;;;;;11.57;2.58;;;;;;;9.56;73.42;100618.50;4459156;32;20064;-75
2021/03/25 07:17:06;;;;;;;9.77;2.50;;;;;;;9.67;72.93;100632.34;4453455;32;20070;-76
2021/03/25 07:19:34;;;;;;;13.40;2.67;;;;;;;9.75;72.41;100631.72;4454976;32;20088;-75
2021/03/25 07:22:23;;;;;;;10.32;2.70;;;;;;;9.76;72.56;100630.50;4454625;32;20055;-76
2021/03/25 07:24:50;;;;;;;17.10;2.67;;;;;;;9.74;72.76;100626.53;4440853;32;20069;-75
2021/03/25 07:27:31;;;;;;;14.40;3.72;;;;;;;9.74;72.60;100629.34;4454973;32;20041;-75
2021/03/25 07:30:09;;;;;;;15.25;3.20;;;;;;;9.71;72.91;100625.41;4454642;32;20160;-74
2021/03/25 07:35:15;;;;;;;9.63;2.70;;;;;;;10.22;71.37;100626.66;3956942;32;15728534;-73
2021/03/25 07:37:43;;;;;;;18.60;4.22;;;;;;;10.22;71.37;100626.66;4432455;32;20417;-74
2021/03/25 07:46:20;;;;;;;10.13;3.12;;;;;;;10.45;71.04;100634.91;3981348;32;15024317;-75
2021/03/25 07:49:14;;;;;;;15.13;3.12;;;;;;;10.45;71.04;100634.91;4436640;32;20127;-75
2021/03/25 08:04:56;;;;;;;10.30;3.22;;;;;;;10.54;70.94;100642.72;3978344;31;15054081;-75
2021/03/25 08:07:23;;;;;;;14.80;3.20;;;;;;;10.54;70.94;100642.72;4428441;32;20041;-75
2021/03/25 08:09:55;;;;;;;10.25;3.12;;;;;;;10.15;71.59;100635.25;4431989;32;20106;-75
2021/03/25 08:12:37;;;;;;;14.65;5.72;;;;;;;10.13;71.85;100632.09;4428191;32;20476;-75
2021/03/25 08:15:25;;;;;;;13.35;3.28;;;;;;;10.52;70.70;100636.75;4432439;32;20123;-75
2021/03/25 08:26:04;;;;;;;17.67;2.97;;;;;;;11.48;67.57;100614.72;3993806;31;15015373;-76
2021/03/25 08:40:00;;;;;;;16.47;3.50;;;;;;;12.44;64.45;100621.00;3989060;31;15021439;-74
2021/03/25 08:42:38;;;;;;;18.02;3.37;;;;;;;12.44;64.45;100621.00;4457803;32;20072;-75
2021/03/25 08:53:32;;;;;;;11.55;3.17;;;;;;;13.19;62.07;100626.47;3978330;32;15025417;-74
2021/03/25 08:56:02;;;;;;;14.85;3.15;;;;;;;13.19;62.07;100626.47;4432174;32;20112;-74
2021/03/25 08:58:34;;;;;;;10.13;2.42;;;;;;;12.79;62.35;100622.63;4430321;32;20072;-74
2021/03/25 09:01:06;;;;;;;12.70;2.62;;;;;;;12.83;62.74;100624.09;4425319;32;20088;-73
2021/03/25 09:03:38;;;;;;;14.30;2.65;;;;;;;12.98;62.11;100625.12;4413942;32;20112;-75
2021/03/25 09:06:23;;;;;;;13.05;2.58;;;;;;;13.16;61.61;100625.31;4415623;32;20103;-76
2021/03/25 09:08:56;;;;;;;11.77;2.80;;;;;;;13.17;61.32;100620.47;4413516;32;20138;-75
2021/03/25 09:11:22;;;;;;;10.82;2.45;;;;;;;12.97;62.02;100620.72;4416338;32;20085;-74
2021/03/25 09:13:56;;;;;;;5.78;1.90;;;;;;;13.36;61.36;100616.53;4416957;32;20108;-75
2021/03/25 09:16:28;;;;;;;13.18;2.50;;;;;;;13.64;60.12;100624.72;4417196;32;20480;-73
2021/03/25 09:18:56;;;;;;;10.20;2.20;;;;;;;13.61;59.36;100617.16;4417457;32;20119;-76
2021/03/25 09:21:26;;;;;;;7.37;2.55;;;;;;;13.49;60.02;100620.84;4414631;32;20109;-74
2021/03/25 09:29:54;;;;;;;13.38;3.20;;;;;;;14.55;57.31;100610.97;3968987;32;15022306;-77
2021/03/25 09:32:35;;;;;;;12.43;2.90;;;;;;;14.55;57.31;100610.97;4427651;32;20077;-75
2021/03/25 09:35:03;;;;;;;10.48;2.28;;;;;;;14.03;58.09;100620.37;4424729;32;20045;-76
2021/03/25 09:37:32;;;;;;;10.75;2.47;;;;;;;14.02;57.96;100615.94;4427418;32;20516;-75
2021/03/25 09:40:38;;;;;;;16.73;2.72;;;;;;;14.34;57.42;100620.34;4427579;32;20094;-76
2021/03/25 09:46:25;;;;;;;12.85;2.40;;;;;;;14.51;57.00;100616.00;3968875;31;15712901;-72
2021/03/25 09:48:52;;;;;;;8.45;2.30;;;;;;;14.51;57.00;100616.00;4442938;32;20084;-74
2021/03/25 09:51:22;;;;;;;9.82;2.22;;;;;;;14.14;57.41;100612.22;4446593;32;20105;-75
2021/03/25 09:53:51;;;;;;;11.43;2.17;;;;;;;14.38;56.55;100616.09;4447895;32;20045;-75
2021/03/25 09:56:35;;;;;;;9.60;2.80;;;;;;;14.63;56.45;100615.09;4444554;32;20053;-74
2021/03/25 09:59:03;;;;;;;24.58;2.90;;;;;;;14.71;56.11;100616.34;4446360;32;20085;-75
2021/03/25 10:01:54;;;;;;;10.68;1.92;;;;;;;14.86;55.45;100612.44;4439079;32;20090;-74
2021/03/25 10:10:46;;;;;;;8.95;2.30;;;;;;;15.77;53.06;100607.47;3973100;32;15022204;-75
2021/03/25 10:21:19;;;;;;;9.02;1.98;;;;;;;16.49;49.11;100620.59;3985111;32;15022655;-75
2021/03/25 10:29:16;;;;;;;11.75;2.00;;;;;;;16.12;48.80;100617.13;3972620;32;15023498;-76
2021/03/25 10:43:03;;;;;;;20.62;3.55;;;;;;;16.46;47.61;100611.00;3979152;32;15022581;-76
2021/03/25 10:48:44;;;;;;;8.13;2.43;;;;;;;16.02;47.51;100607.09;3994784;31;15014887;-77
2021/03/25 11:01:55;;;;;;;9.05;2.33;;;;;;;16.79;46.33;100589.00;3973279;32;15022855;-76
2021/03/25 11:04:28;;;;;;;11.77;1.98;;;;;;;16.79;46.33;100589.00;4429491;32;20080;-77
2021/03/25 11:06:54;;;;;;;12.07;1.98;;;;;;;16.52;46.32;100588.38;4429174;32;20080;-77
2021/03/25 11:09:26;;;;;;;8.57;1.75;;;;;;;16.70;46.02;100572.00;4432929;32;20107;-76
2021/03/25 11:11:57;;;;;;;14.43;2.42;;;;;;;16.70;45.48;100589.06;4432126;32;20487;-76
2021/03/25 11:14:31;;;;;;;10.07;1.85;;;;;;;16.85;44.76;100583.44;4429609;32;20044;-79
2021/03/25 11:17:12;;;;;;;9.48;2.00;;;;;;;16.35;45.60;100573.78;4429759;32;20103;-75
2021/03/25 11:19:40;;;;;;;14.50;1.73;;;;;;;16.17;45.82;100576.72;4434419;32;20030;-76
2021/03/25 11:22:11;;;;;;;7.68;1.52;;;;;;;15.96;46.79;100567.19;4433239;32;20073;-77
2021/03/25 11:24:38;;;;;;;4.75;1.50;;;;;;;15.94;46.26;100566.91;4433186;32;20069;-79
2021/03/25 11:27:14;;;;;;;3.70;1.10;;;;;;;15.77;44.57;100562.84;4430987;32;20041;-75
2021/03/25 11:29:43;;;;;;;5.65;1.50;;;;;;;15.52;44.80;100556.78;4431480;32;20104;-80
2021/03/25 11:32:30;;;;;;;9.98;1.37;;;;;;;15.57;46.38;100556.94;4432250;32;20100;-78
2021/03/25 11:34:56;;;;;;;12.88;1.73;;;;;;;15.55;45.33;100567.19;4430597;32;20138;-77
2021/03/25 11:40:08;;;;;;;7.18;1.50;;;;;;;16.13;45.33;100555.47;3980700;32;15024067;-78
2021/03/25 11:42:34;;;;;;;7.70;1.30;;;;;;;16.13;45.33;100555.47;4434737;32;20053;-76
2021/03/25 11:45:00;;;;;;;7.50;1.45;;;;;;;15.74;46.25;100551.69;4435303;32;20382;-76
2021/03/25 11:47:44;;;;;;;8.48;1.60;;;;;;;15.58;46.70;100544.34;4434952;32;20111;-77
2021/03/25 11:52:50;;;;;;;9.32;1.70;;;;;;;16.20;45.52;100544.50;3974208;32;15023559;-76
2021/03/25 11:58:18;;;;;;;7.03;1.65;;;;;;;16.59;43.62;100539.72;3976937;32;15039955;-75
2021/03/25 12:01:17;;;;;;;8.13;2.12;;;;;;;16.59;43.62;100539.72;4426838;32;20045;-74
2021/03/25 12:03:53;;;;;;;11.50;1.50;;;;;;;16.16;43.81;100541.06;4413879;32;20266;-75
2021/03/25 12:11:52;;;;;;;10.20;1.77;;;;;;;16.91;40.72;100530.31;4000601;31;15017101;-77
2021/03/25 12:14:20;;;;;;;12.70;1.98;;;;;;;17.09;41.40;100541.53;4459821;32;20076;-77
2021/03/25 12:19:33;;;;;;;6.50;1.25;;;;;;;18.73;37.48;100531.25;3978790;31;15016734;-76
2021/03/25 12:22:00;;;;;;;5.57;1.15;;;;;;;18.73;37.48;100531.25;4427994;32;20053;-78
2021/03/25 12:24:25;;;;;;;4.62;1.12;;;;;;;18.44;36.79;100527.75;4426543;32;20077;-77
2021/03/25 12:26:51;;;;;;;5.70;1.25;;;;;;;18.08;37.25;100536.78;4428502;32;20044;-78
2021/03/25 12:29:17;;;;;;;8.82;1.45;;;;;;;17.63;38.21;100521.84;4425781;32;20099;-78
2021/03/25 12:31:44;;;;;;;4.32;1.10;;;;;;;18.00;37.57;100518.53;4426691;32;20096;-75
2021/03/25 12:34:13;;;;;;;5.90;1.67;;;;;;;17.68;38.18;100515.44;4427566;32;20084;-76
2021/03/25 12:36:39;;;;;;;10.30;1.55;;;;;;;17.46;38.77;100523.62;4425488;32;20042;-76
2021/03/25 12:39:07;;;;;;;2.67;1.00;;;;;;;17.76;38.55;100518.66;4427201;32;20190;-76
2021/03/25 12:44:15;;;;;;;4.68;1.00;;;;;;;18.37;37.29;100514.69;3978453;32;15023991;-76
2021/03/25 12:46:41;;;;;;;7.25;1.90;;;;;;;18.37;37.29;100514.69;4430036;32;20063;-77
2021/03/25 12:49:07;;;;;;;11.07;1.23;;;;;;;18.09;37.91;100522.03;4430140;32;20109;-77
2021/03/25 12:51:34;;;;;;;6.12;1.00;;;;;;;18.31;37.45;100510.97;4427866;32;20120;-77
2021/03/25 12:54:00;;;;;;;9.35;1.45;;;;;;;17.98;38.18;100513.31;4428370;32;20473;-77
2021/03/25 12:56:33;;;;;;;9.20;1.55;;;;;;;18.14;37.32;100503.47;4427537;32;20541;-77
2021/03/25 12:59:03;;;;;;;9.48;1.30;;;;;;;18.36;37.34;100503.78;4427704;32;20069;-76
2021/03/25 13:01:30;;;;;;;5.75;1.27;;;;;;;18.35;37.67;100505.81;4424258;32;20701;-76
2021/03/25 13:03:56;;;;;;;8.93;1.30;;;;;;;18.79;36.73;100512.13;4418688;32;20058;-76
2021/03/25 13:06:23;;;;;;;7.28;1.20;;;;;;;19.07;35.43;100506.72;4417826;32;20077;-77
2021/03/25 13:08:50;;;;;;;3.75;1.30;;;;;;;19.29;35.06;100495.56;4417990;32;20073;-77
2021/03/25 13:11:20;;;;;;;11.30;1.60;;;;;;;19.17;34.70;100496.72;4414197;32;20065;-77
2021/03/25 13:13:46;;;;;;;8.15;1.65;;;;;;;19.27;35.26;100486.75;4417207;32;20110;-75
2021/03/25 13:16:13;;;;;;;8.55;1.58;;;;;;;18.84;35.75;100488.59;4418222;32;20073;-76
2021/03/25 13:18:39;;;;;;;3.12;1.17;;;;;;;18.98;35.55;100496.28;4417078;32;20100;-77
2021/03/25 13:21:06;;;;;;;4.68;1.40;;;;;;;18.80;35.84;100496.59;4419604;32;20526;-74
2021/03/25 13:23:32;;;;;;;6.35;1.23;;;;;;;18.83;36.17;100489.88;4414815;32;20045;-76
2021/03/25 13:25:58;;;;;;;3.72;1.25;;;;;;;19.22;35.19;100482.53;4416358;32;20086;-75
2021/03/25 13:28:24;;;;;;;9.48;1.60;;;;;;;18.64;35.96;100488.63;4415227;32;20154;-75
2021/03/25 13:30:51;;;;;;;10.38;1.58;;;;;;;18.35;36.42;100485.13;4418525;32;20113;-75
2021/03/25 13:33:18;;;;;;;10.30;1.50;;;;;;;18.37;36.44;100485.41;4415908;32;20074;-76
2021/03/25 13:35:46;;;;;;;11.00;1.27;;;;;;;18.05;36.78;100469.41;4419742;32;20077;-75
2021/03/25 13:38:13;;;;;;;6.80;1.20;;;;;;;18.01;36.54;100463.94;4417999;32;20077;-77
2021/03/25 13:40:41;;;;;;;2.33;0.90;;;;;;;18.12;36.20;100469.78;4417838;32;20140;-75
2021/03/25 13:43:11;;;;;;;8.43;1.42;;;;;;;17.64;36.87;100460.81;4415666;32;20077;-76
2021/03/25 13:45:37;;;;;;;12.25;4.93;;;;;;;17.85;36.03;100456.72;4417551;32;20076;-74
2021/03/25 13:48:03;;;;;;;7.32;1.05;;;;;;;18.06;35.19;100459.59;4415127;32;20137;-74
2021/03/25 13:50:33;;;;;;;5.55;0.95;;;;;;;18.19;34.51;100468.59;4418870;32;20026;-74
2021/03/25 13:52:59;;;;;;;8.07;1.40;;;;;;;17.99;34.85;100466.50;4413143;32;20156;-75
2021/03/25 13:58:09;;;;;;;6.43;1.40;;;;;;;18.59;34.51;100454.37;3976918;32;15023502;-75
2021/03/25 14:00:35;;;;;;;5.90;0.95;;;;;;;18.82;34.38;100464.72;4424641;32;20066;-75
2021/03/25 14:03:01;;;;;;;10.32;1.20;;;;;;;18.91;33.85;100471.06;4413017;32;20077;-76
2021/03/25 14:05:29;;;;;;;4.85;1.30;;;;;;;18.66;34.47;100465.31;4415752;32;20197;-78
2021/03/25 14:07:55;;;;;;;3.42;1.12;;;;;;;18.34;34.69;100449.34;4412902;32;20448;-76
2021/03/25 14:10:23;;;;;;;4.15;0.93;;;;;;;18.06;35.11;100456.75;4412735;32;20073;-76
2021/03/25 14:12:49;;;;;;;3.22;1.00;;;;;;;18.25;35.44;100446.66;4412515;32;20168;-76
2021/03/25 14:15:19;;;;;;;3.40;1.30;;;;;;;18.49;35.04;100452.94;4412554;32;20104;-76
2021/03/25 14:17:45;;;;;;;18.20;1.83;;;;;;;18.48;35.12;100446.47;4414142;32;20093;-77
2021/03/25 14:20:16;;;;;;;7.12;1.10;;;;;;;18.48;35.12;100452.16;4413617;32;20211;-76
2021/03/25 14:22:42;;;;;;;7.18;1.20;;;;;;;18.56;34.71;100438.28;4416257;32;20069;-77
2021/03/25 14:25:12;;;;;;;6.25;1.12;;;;;;;18.78;34.36;100450.69;4416355;32;20466;-75
2021/03/25 14:27:39;;;;;;;3.60;0.88;;;;;;;18.71;34.59;100442.56;4414127;32;20068;-74
2021/03/25 14:30:06;;;;;;;5.68;1.30;;;;;;;18.29;35.35;100430.13;4413621;32;20080;-75
2021/03/25 14:32:32;;;;;;;2.40;0.93;;;;;;;18.42;35.41;100431.38;4413122;32;20041;-76
2021/03/25 14:34:58;;;;;;;10.27;1.35;;;;;;;18.51;34.79;100428.38;4414243;32;20151;-75
2021/03/25 14:37:24;;;;;;;12.75;1.77;;;;;;;18.85;34.57;100418.91;4412155;32;20049;-76
2021/03/25 14:39:49;;;;;;;9.70;1.30;;;;;;;18.76;34.63;100416.22;4413553;32;20275;-75
2021/03/25 14:42:15;;;;;;;13.52;1.35;;;;;;;18.69;34.49;100430.13;4412759;32;20219;-74
2021/03/25 14:44:41;;;;;;;10.98;1.17;;;;;;;18.78;34.67;100412.84;4411199;32;20412;-73
2021/03/25 14:47:07;;;;;;;10.27;1.80;;;;;;;18.84;34.46;100416.53;4413841;32;20566;-73
2021/03/25 14:49:35;;;;;;;4.12;0.80;;;;;;;19.57;33.35;100416.66;4414334;32;20091;-76
2021/03/25 14:52:00;;;;;;;11.52;1.40;;;;;;;19.46;33.04;100413.75;4411399;32;20472;-75
2021/03/25 14:54:26;;;;;;;6.90;2.05;;;;;;;19.24;33.60;100413.53;4413420;32;20080;-78
2021/03/25 14:56:52;;;;;;;11.48;1.77;;;;;;;19.29;32.85;100407.91;4412103;32;20072;-75
2021/03/25 14:59:18;;;;;;;5.40;1.08;;;;;;;19.55;32.13;100400.06;4413049;32;20393;-75
2021/03/25 15:01:44;;;;;;;10.30;1.10;;;;;;;19.53;32.43;100399.78;4412416;32;20064;-75
2021/03/25 15:04:10;;;;;;;9.70;2.22;;;;;;;19.25;33.37;100397.97;4410755;32;20038;-75
2021/03/25 15:06:35;;;;;;;5.75;1.05;;;;;;;19.58;33.05;100395.41;4410546;32;20068;-74
2021/03/25 15:09:03;;;;;;;5.57;1.27;;;;;;;19.42;33.66;100387.53;4403053;32;20034;-75
2021/03/25 15:11:33;;;;;;;8.57;1.65;;;;;;;19.71;33.23;100370.84;4403282;32;20215;-76
2021/03/25 15:13:59;;;;;;;7.07;1.05;;;;;;;18.95;34.57;100366.09;4403256;32;20515;-77
2021/03/25 15:16:27;;;;;;;6.50;1.60;;;;;;;19.10;34.13;100377.38;4402389;32;20434;-75
2021/03/25 15:18:52;;;;;;;8.75;1.05;;;;;;;19.03;34.18;100360.72;4401769;32;20080;-76
2021/03/25 15:21:18;;;;;;;5.28;0.98;;;;;;;18.95;33.47;100371.00;4402883;32;20081;-75